Time;durP1;ratioP1;P1;durP2;ratioP2;P2;SDS_P1;SDS_P2;PMS_P1;PMS_P2;Temp;Humidity;BMP_temperature;BMP_pressure;BME280_temperature;BME280_humidity;BME280_pressure;Samples;Min_cycle;Max_cycle;Signal;HPM_P1;HPM_P2
2023/09/23 00:01:37;;;;;;;5.30;2.53;;;13.20;99.90;;;;;;5106410;28;20175;-84
2023/09/23 00:04:03;;;;;;;6.57;2.67;;;13.20;99.90;;;;;;5095788;28;20180;-84
2023/09/23 00:06:29;;;;;;;5.87;2.37;;;13.20;99.90;;;;;;5096831;28;20210;-84
2023/09/23 00:08:55;;;;;;;6.27;2.57;;;13.20;99.90;;;;;;5095095;28;20175;-84
2023/09/23 00:11:21;;;;;;;5.67;2.43;;;13.20;99.90;;;;;;5095072;28;20167;-84
2023/09/23 00:13:47;;;;;;;9.27;2.70;;;13.20;99.90;;;;;;5095267;28;20166;-84
2023/09/23 00:16:15;;;;;;;7.17;2.40;;;13.20;99.90;;;;;;5095569;28;20171;-84
2023/09/23 00:18:43;;;;;;;8.67;2.60;;;13.20;99.90;;;;;;5115712;28;20191;-84
2023/09/23 00:21:11;;;;;;;8.03;2.30;;;13.30;99.90;;;;;;5114990;28;20178;-84
2023/09/23 00:23:37;;;;;;;5.57;2.50;;;13.30;99.60;;;;;;5115110;28;20642;-84
2023/09/23 00:26:03;;;;;;;7.07;2.67;;;13.30;98.80;;;;;;5115318;28;20198;-83
2023/09/23 00:28:30;;;;;;;5.60;2.77;;;13.20;99.30;;;;;;5114307;28;20639;-84
2023/09/23 00:31:05;;;;;;;7.10;2.33;;;13.20;99.80;;;;;;5116119;28;20182;-84
2023/09/23 00:33:31;;;;;;;6.63;2.07;;;13.10;99.90;;;;;;5115779;28;20234;-84
2023/09/23 00:35:58;;;;;;;8.47;2.00;;;13.00;99.90;;;;;;5097647;28;20198;-83
2023/09/23 00:38:24;;;;;;;4.87;2.23;;;13.00;99.90;;;;;;5097065;28;20155;-83
2023/09/23 00:40:51;;;;;;;8.50;2.03;;;13.00;99.90;;;;;;5094793;28;20535;-84
2023/09/23 00:43:18;;;;;;;6.97;2.40;;;13.00;99.90;;;;;;5094693;28;20580;-82
2023/09/23 00:45:48;;;;;;;4.47;2.33;;;13.00;99.90;;;;;;5110102;28;20187;-84
2023/09/23 00:48:21;;;;;;;5.67;2.40;;;13.00;99.90;;;;;;5113990;28;20673;-84
2023/09/23 00:50:52;;;;;;;5.47;2.43;;;13.00;99.90;;;;;;5112229;28;20178;-82
2023/09/23 00:53:18;;;;;;;4.17;1.60;;;13.00;99.90;;;;;;5116313;28;20654;-84
2023/09/23 00:55:47;;;;;;;5.93;2.17;;;13.10;99.90;;;;;;5114804;28;20212;-83
2023/09/23 00:58:19;;;;;;;5.03;2.40;;;13.00;99.90;;;;;;5115854;28;20616;-83
2023/09/23 01:00:44;;;;;;;6.17;1.87;;;13.00;99.90;;;;;;5115478;28;20169;-83
2023/09/23 01:03:10;;;;;;;6.50;2.10;;;13.10;99.90;;;;;;5094706;28;20597;-84
2023/09/23 01:05:37;;;;;;;6.10;2.00;;;13.00;99.90;;;;;;5101831;28;20174;-83
2023/09/23 01:08:04;;;;;;;4.23;2.03;;;13.10;99.90;;;;;;5115432;28;20219;-84
2023/09/23 01:10:30;;;;;;;5.17;1.90;;;13.00;99.90;;;;;;5115330;28;20167;-84
2023/09/23 01:12:59;;;;;;;5.70;2.00;;;13.00;99.90;;;;;;5114689;28;20587;-83
2023/09/23 01:15:28;;;;;;;4.97;2.10;;;12.90;99.90;;;;;;5116034;28;20171;-84
2023/09/23 01:17:54;;;;;;;6.43;2.07;;;12.90;99.90;;;;;;5114864;28;20183;-84
2023/09/23 01:20:21;;;;;;;6.27;2.17;;;12.80;99.90;;;;;;5114600;28;20672;-82
2023/09/23 01:22:49;;;;;;;6.30;2.03;;;12.80;99.90;;;;;;5097597;28;20177;-82
2023/09/23 01:25:16;;;;;;;5.27;1.97;;;12.80;99.90;;;;;;5094412;28;20203;-83
2023/09/23 01:27:42;;;;;;;8.10;2.20;;;12.70;99.90;;;;;;5093673;28;20218;-83
2023/09/23 01:30:08;;;;;;;5.63;2.23;;;12.70;99.90;;;;;;5097064;28;20189;-83
2023/09/23 01:32:51;;;;;;;5.73;2.30;;;12.70;99.90;;;;;;5096105;28;20163;-83
2023/09/23 01:35:20;;;;;;;4.40;2.13;;;12.80;99.90;;;;;;5092808;28;20226;-83
2023/09/23 01:37:46;;;;;;;5.43;2.20;;;12.70;99.90;;;;;;5094352;28;20552;-83
2023/09/23 01:40:18;;;;;;;6.07;2.13;;;12.70;99.90;;;;;;5094383;28;20176;-82
2023/09/23 01:42:44;;;;;;;5.30;2.10;;;12.70;99.90;;;;;;5094595;28;20273;-84
2023/09/23 01:45:13;;;;;;;4.73;2.13;;;12.70;99.90;;;;;;5094040;28;20196;-84
2023/09/23 01:47:41;;;;;;;4.63;2.17;;;12.70;99.90;;;;;;5093965;28;20220;-84
2023/09/23 01:50:11;;;;;;;7.63;2.60;;;12.60;99.90;;;;;;5095579;28;20182;-83
2023/09/23 01:52:40;;;;;;;8.00;2.73;;;12.60;99.90;;;;;;5093791;28;20207;-83
2023/09/23 01:55:08;;;;;;;6.30;2.63;;;12.50;99.90;;;;;;5094257;28;20221;-84
2023/09/23 01:57:34;;;;;;;7.10;2.27;;;12.50;99.90;;;;;;5094148;28;20516;-83
2023/09/23 02:00:01;;;;;;;8.07;2.73;;;12.60;99.90;;;;;;5094328;28;20263;-84
2023/09/23 02:02:27;;;;;;;5.20;2.43;;;12.50;99.90;;;;;;5094956;28;20179;-84
2023/09/23 02:04:56;;;;;;;4.80;2.53;;;12.50;99.90;;;;;;5097689;28;20283;-83
2023/09/23 02:07:22;;;;;;;6.73;2.53;;;12.50;99.90;;;;;;5097331;28;20207;-83
2023/09/23 02:09:48;;;;;;;6.90;2.57;;;12.50;99.90;;;;;;5097395;28;20171;-83
2023/09/23 02:12:14;;;;;;;4.37;2.33;;;12.50;99.90;;;;;;5096888;28;20180;-83
2023/09/23 02:14:43;;;;;;;4.87;2.60;;;12.60;99.90;;;;;;5097756;28;20184;-83
2023/09/23 02:17:09;;;;;;;5.13;2.10;;;12.60;99.90;;;;;;5098274;28;20176;-83
2023/09/23 02:19:36;;;;;;;6.73;2.30;;;12.50;99.90;;;;;;5099261;28;20282;-83
2023/09/23 02:22:05;;;;;;;5.33;2.70;;;12.50;99.90;;;;;;5098393;28;20187;-83
2023/09/23 02:24:32;;;;;;;9.57;2.70;;;12.50;99.90;;;;;;5114143;28;20587;-83
2023/09/23 02:26:58;;;;;;;8.37;2.67;;;12.50;99.90;;;;;;5097413;28;20204;-84
2023/09/23 02:29:24;;;;;;;5.30;2.30;;;12.40;99.90;;;;;;5099430;28;20201;-84
2023/09/23 02:31:50;;;;;;;5.10;2.10;;;12.40;99.90;;;;;;5098844;28;20662;-84
2023/09/23 02:34:20;;;;;;;6.37;2.60;;;12.40;99.90;;;;;;5097087;28;20247;-84
2023/09/23 02:36:45;;;;;;;5.93;2.43;;;12.40;99.90;;;;;;5097811;28;20489;-84
2023/09/23 02:39:20;;;;;;;4.67;2.20;;;12.50;99.90;;;;;;5107062;28;20210;-84
2023/09/23 02:41:50;;;;;;;9.80;2.70;;;12.50;99.90;;;;;;5118316;28;20294;-84
2023/09/23 02:44:24;;;;;;;5.37;2.00;;;12.50;99.90;;;;;;5116606;28;20170;-84
2023/09/23 02:46:52;;;;;;;6.60;2.67;;;12.40;99.90;;;;;;5116329;28;20263;-84
2023/09/23 02:49:19;;;;;;;8.00;2.23;;;12.40;99.90;;;;;;5116511;28;20266;-83
2023/09/23 02:51:45;;;;;;;4.87;2.03;;;12.40;99.90;;;;;;5116966;28;20175;-84
2023/09/23 02:54:15;;;;;;;6.87;2.30;;;12.40;99.90;;;;;;5117045;28;20183;-84
2023/09/23 02:56:41;;;;;;;5.50;2.30;;;12.30;99.90;;;;;;5114258;28;20281;-82
2023/09/23 02:59:13;;;;;;;4.80;2.10;;;12.30;99.90;;;;;;5095889;28;20179;-83
2023/09/23 03:01:49;;;;;;;5.30;2.00;;;12.30;99.90;;;;;;5097476;28;20236;-82
2023/09/23 03:04:23;;;;;;;5.80;2.53;;;12.20;99.90;;;;;;5095488;28;20170;-84
2023/09/23 03:06:55;;;;;;;4.87;1.93;;;12.20;99.90;;;;;;5098990;28;20190;-83
2023/09/23 03:09:25;;;;;;;4.03;2.20;;;12.20;99.90;;;;;;5117268;28;20184;-83
2023/09/23 03:11:55;;;;;;;5.63;2.20;;;12.30;99.90;;;;;;5115471;28;20622;-83
2023/09/23 03:14:35;;;;;;;5.40;2.40;;;12.20;99.90;;;;;;5115902;28;20185;-82
2023/09/23 03:17:01;;;;;;;5.63;2.30;;;12.20;99.90;;;;;;5112349;28;20538;-83
2023/09/23 03:19:27;;;;;;;8.13;2.50;;;12.30;99.90;;;;;;5107587;28;20180;-83
2023/09/23 03:21:56;;;;;;;5.83;2.33;;;12.30;99.90;;;;;;5116482;28;20170;-83
2023/09/23 03:24:26;;;;;;;6.33;2.67;;;12.30;99.90;;;;;;5115687;28;20277;-85
2023/09/23 03:26:53;;;;;;;8.37;2.77;;;12.30;99.90;;;;;;5114116;28;20662;-83
2023/09/23 03:29:20;;;;;;;5.30;2.30;;;12.30;99.90;;;;;;5115928;28;20223;-84
2023/09/23 03:31:46;;;;;;;6.63;2.30;;;12.30;99.90;;;;;;5116619;28;20182;-84
2023/09/23 03:34:14;;;;;;;4.90;2.20;;;12.30;99.90;;;;;;5116511;28;20653;-85
2023/09/23 03:36:41;;;;;;;4.67;2.37;;;12.20;99.90;;;;;;5113990;28;20517;-83
2023/09/23 03:39:10;;;;;;;3.83;2.27;;;12.30;99.90;;;;;;5096767;28;20245;-84
2023/09/23 03:41:37;;;;;;;5.67;2.37;;;12.20;99.90;;;;;;5096162;28;20228;-84
2023/09/23 03:44:04;;;;;;;6.17;2.30;;;12.20;99.90;;;;;;5097195;28;20178;-83
2023/09/23 03:46:30;;;;;;;5.20;2.50;;;12.20;99.90;;;;;;5096975;28;20201;-83
2023/09/23 03:48:56;;;;;;;7.73;3.03;;;12.20;99.90;;;;;;5096900;28;20550;-83
2023/09/23 03:51:24;;;;;;;7.53;2.50;;;12.20;99.90;;;;;;5096082;28;20171;-83
2023/09/23 03:53:51;;;;;;;6.10;2.33;;;12.10;99.90;;;;;;5102503;28;20297;-83
2023/09/23 03:56:19;;;;;;;5.47;2.70;;;12.10;99.90;;;;;;5111626;28;20172;-82
2023/09/23 03:58:46;;;;;;;7.80;2.80;;;12.10;99.90;;;;;;5114526;28;20174;-83
2023/09/23 04:01:14;;;;;;;4.60;2.20;;;12.10;99.90;;;;;;5115557;28;20216;-83
2023/09/23 04:03:40;;;;;;;5.70;2.20;;;12.10;99.90;;;;;;5114491;28;20176;-83
2023/09/23 04:06:06;;;;;;;6.70;2.63;;;12.10;99.90;;;;;;5092949;28;20394;-83
2023/09/23 04:08:31;;;;;;;6.37;2.57;;;12.10;99.90;;;;;;5094907;28;20178;-83
2023/09/23 04:11:10;;;;;;;4.80;2.33;;;12.10;99.90;;;;;;5093793;28;20178;-82
2023/09/23 04:13:37;;;;;;;4.57;2.33;;;12.10;99.90;;;;;;5095931;28;20159;-82
2023/09/23 04:16:05;;;;;;;4.77;2.13;;;12.00;99.90;;;;;;5099662;28;20167;-83
2023/09/23 04:18:31;;;;;;;6.43;2.77;;;12.00;99.90;;;;;;5096284;28;20206;-82
2023/09/23 04:20:57;;;;;;;4.20;2.20;;;12.00;99.90;;;;;;5094696;28;20612;-83
2023/09/23 04:23:23;;;;;;;7.27;2.80;;;12.00;99.90;;;;;;5095974;28;20217;-83
2023/09/23 04:25:52;;;;;;;5.47;3.10;;;12.00;99.90;;;;;;5113964;28;20539;-84
2023/09/23 04:28:22;;;;;;;5.23;2.93;;;12.00;99.90;;;;;;5117047;28;20185;-83
2023/09/23 04:30:53;;;;;;;6.73;2.60;;;12.00;99.90;;;;;;5101509;28;20213;-83
2023/09/23 04:33:21;;;;;;;7.30;2.53;;;12.00;99.90;;;;;;5094777;28;20187;-83
2023/09/23 04:35:48;;;;;;;6.97;2.67;;;11.90;99.90;;;;;;5094524;28;20196;-84
2023/09/23 04:38:15;;;;;;;6.37;2.90;;;11.90;99.90;;;;;;5095136;28;20236;-83
2023/09/23 04:40:42;;;;;;;5.77;2.57;;;11.90;99.90;;;;;;5096300;28;20277;-83
2023/09/23 04:43:10;;;;;;;5.23;2.80;;;11.90;99.90;;;;;;5094438;28;20171;-84
2023/09/23 04:45:37;;;;;;;7.27;2.37;;;12.00;99.90;;;;;;5094619;28;20237;-82
2023/09/23 04:48:06;;;;;;;5.97;2.70;;;12.00;99.90;;;;;;5095648;28;20607;-82
2023/09/23 04:50:33;;;;;;;5.90;2.43;;;12.00;99.90;;;;;;5094032;28;20194;-84
2023/09/23 04:52:59;;;;;;;8.87;2.90;;;12.10;99.90;;;;;;5094831;28;20218;-83
2023/09/23 04:55:28;;;;;;;5.13;2.40;;;12.10;99.90;;;;;;5103758;28;20181;-84
2023/09/23 04:57:55;;;;;;;6.23;2.60;;;12.10;99.90;;;;;;5114844;28;20213;-83
2023/09/23 05:00:21;;;;;;;5.63;2.60;;;12.10;99.90;;;;;;5115708;28;20179;-85
2023/09/23 05:02:51;;;;;;;4.87;2.43;;;12.10;99.90;;;;;;5117035;28;20169;-83
2023/09/23 05:05:19;;;;;;;6.53;2.60;;;12.10;99.90;;;;;;5114695;28;20167;-84
2023/09/23 05:07:45;;;;;;;4.77;2.60;;;12.10;99.90;;;;;;5115129;28;20758;-85
2023/09/23 05:10:12;;;;;;;5.13;2.33;;;12.10;99.90;;;;;;5116144;28;20177;-83
2023/09/23 05:12:41;;;;;;;7.57;3.37;;;12.10;99.90;;;;;;5114763;28;20714;-84
2023/09/23 05:15:10;;;;;;;7.87;2.57;;;12.10;99.90;;;;;;5100409;28;20169;-83
2023/09/23 05:17:37;;;;;;;6.30;2.37;;;12.10;99.90;;;;;;5111299;28;20186;-83
2023/09/23 05:20:16;;;;;;;5.07;2.67;;;12.20;99.90;;;;;;5116434;28;20520;-84
2023/09/23 05:22:42;;;;;;;9.07;2.90;;;12.20;99.90;;;;;;5114778;28;20522;-84
2023/09/23 05:25:08;;;;;;;6.00;2.50;;;12.30;99.90;;;;;;5112650;28;20224;-84
2023/09/23 05:27:33;;;;;;;6.97;3.10;;;12.30;99.90;;;;;;5115280;28;20219;-84
2023/09/23 05:29:59;;;;;;;6.67;3.20;;;12.30;99.90;;;;;;5114817;28;20175;-84
2023/09/23 05:32:26;;;;;;;7.13;2.80;;;12.30;99.90;;;;;;5114689;28;20283;-84
2023/09/23 05:34:54;;;;;;;4.70;2.87;;;12.30;99.90;;;;;;5107822;28;20191;-85
2023/09/23 05:37:20;;;;;;;5.13;2.50;;;12.30;99.90;;;;;;5102650;28;20197;-84
2023/09/23 05:39:46;;;;;;;8.17;3.17;;;12.30;99.90;;;;;;5118213;28;20196;-84
2023/09/23 05:42:18;;;;;;;6.43;3.33;;;12.10;99.90;;;;;;5119409;28;20259;-84
2023/09/23 05:44:46;;;;;;;9.10;2.90;;;12.20;99.90;;;;;;5118147;28;20726;-84
2023/09/23 05:47:12;;;;;;;7.40;3.20;;;12.20;99.90;;;;;;5120176;28;20586;-83
2023/09/23 05:49:38;;;;;;;6.17;2.90;;;12.10;99.90;;;;;;5126738;28;20195;-82
2023/09/23 05:52:04;;;;;;;6.10;3.10;;;12.10;99.90;;;;;;5139467;28;20207;-81
2023/09/23 05:54:31;;;;;;;6.97;2.80;;;12.20;99.90;;;;;;5136900;28;20151;-82
2023/09/23 05:56:57;;;;;;;5.97;2.50;;;12.10;99.90;;;;;;5118044;28;20163;-84
2023/09/23 05:59:24;;;;;;;4.77;2.87;;;12.10;99.90;;;;;;5120553;28;20182;-83
2023/09/23 06:01:49;;;;;;;7.13;3.00;;;12.10;99.90;;;;;;5117983;28;20182;-83
2023/09/23 06:04:17;;;;;;;5.67;2.80;;;12.20;99.90;;;;;;5102256;28;20491;-83
2023/09/23 06:06:49;;;;;;;9.20;3.40;;;12.20;99.90;;;;;;5119882;28;20208;-82
2023/09/23 06:09:15;;;;;;;5.83;3.20;;;12.20;99.90;;;;;;5117363;28;20201;-84
2023/09/23 06:11:43;;;;;;;7.50;3.10;;;12.20;99.90;;;;;;5118145;28;20538;-83
2023/09/23 06:14:10;;;;;;;7.10;2.90;;;12.30;99.90;;;;;;5117569;28;20178;-82
2023/09/23 06:16:36;;;;;;;13.27;3.83;;;12.30;99.90;;;;;;5099286;28;20188;-84
2023/09/23 06:19:01;;;;;;;6.13;3.40;;;12.20;99.90;;;;;;5097749;28;20191;-83
2023/09/23 06:21:29;;;;;;;5.93;2.97;;;12.30;99.90;;;;;;5097640;28;20175;-84
2023/09/23 06:23:54;;;;;;;7.47;3.40;;;12.40;99.90;;;;;;5095898;28;20221;-82
2023/09/23 06:26:21;;;;;;;9.27;3.00;;;12.40;99.90;;;;;;5096716;28;20206;-84
2023/09/23 06:28:47;;;;;;;7.97;3.33;;;12.40;99.90;;;;;;5096699;28;20172;-84
2023/09/23 06:31:13;;;;;;;9.33;3.70;;;12.40;99.90;;;;;;5096605;28;20170;-84
2023/09/23 06:33:39;;;;;;;8.23;3.23;;;12.40;99.90;;;;;;5095675;28;20187;-83
2023/09/23 06:36:05;;;;;;;7.23;3.00;;;12.40;99.90;;;;;;5096441;28;20206;-85
2023/09/23 06:38:32;;;;;;;7.70;3.60;;;12.40;99.90;;;;;;5095033;28;20518;-83
2023/09/23 06:40:58;;;;;;;7.10;3.30;;;12.50;99.90;;;;;;5104229;28;20180;-85
2023/09/23 06:43:24;;;;;;;8.13;3.10;;;12.50;99.90;;;;;;5116792;28;20159;-84
2023/09/23 06:45:57;;;;;;;6.47;3.27;;;12.60;99.90;;;;;;5105472;28;20227;-83
2023/09/23 06:48:24;;;;;;;6.43;3.57;;;12.70;99.90;;;;;;5098708;28;20176;-82
2023/09/23 06:50:57;;;;;;;6.07;3.00;;;12.80;99.90;;;;;;5095856;28;20183;-83
2023/09/23 06:53:23;;;;;;;5.57;3.40;;;12.80;99.90;;;;;;5095572;28;20686;-84
2023/09/23 06:55:49;;;;;;;8.60;3.30;;;12.90;99.90;;;;;;5094950;28;20170;-83
2023/09/23 06:58:15;;;;;;;7.40;3.63;;;13.00;99.90;;;;;;5105666;28;20175;-83
2023/09/23 07:00:40;;;;;;;5.67;3.70;;;13.00;99.90;;;;;;5117751;28;20166;-84
2023/09/23 07:03:06;;;;;;;8.53;2.80;;;13.10;99.90;;;;;;5119098;28;20206;-83
2023/09/23 07:05:34;;;;;;;5.43;2.87;;;13.10;99.90;;;;;;5116723;28;20171;-84
2023/09/23 07:08:00;;;;;;;4.37;2.67;;;13.10;99.90;;;;;;5117703;28;20214;-83
2023/09/23 07:10:27;;;;;;;7.53;3.60;;;13.10;99.90;;;;;;5117675;28;20623;-84
2023/09/23 07:12:53;;;;;;;6.13;2.83;;;13.10;99.90;;;;;;5116498;28;20580;-83
2023/09/23 07:15:20;;;;;;;8.87;2.90;;;13.20;99.90;;;;;;5118214;28;20168;-85
2023/09/23 07:17:46;;;;;;;5.97;3.30;;;13.20;99.90;;;;;;5120871;28;20183;-84
2023/09/23 07:20:12;;;;;;;6.77;2.73;;;13.20;99.90;;;;;;5106168;28;20180;-84
2023/09/23 07:22:38;;;;;;;5.87;3.07;;;13.30;99.90;;;;;;5098803;28;20617;-82
2023/09/23 07:25:04;;;;;;;8.70;3.20;;;13.30;99.90;;;;;;5102017;28;20175;-84
2023/09/23 07:27:31;;;;;;;4.97;3.37;;;13.30;99.90;;;;;;5102394;28;20268;-84
2023/09/23 07:29:56;;;;;;;6.33;3.00;;;13.40;99.90;;;;;;5101194;28;20174;-83
2023/09/23 07:32:22;;;;;;;5.83;3.00;;;13.40;99.90;;;;;;5117057;28;20203;-86
2023/09/23 07:34:48;;;;;;;7.30;3.03;;;13.60;99.90;;;;;;5112467;28;20187;-84
2023/09/23 07:37:13;;;;;;;6.20;2.83;;;13.60;99.90;;;;;;5116007;28;20629;-86
2023/09/23 07:39:40;;;;;;;8.03;3.20;;;13.50;99.90;;;;;;5126933;28;20220;-84
2023/09/23 07:42:06;;;;;;;7.97;3.17;;;13.60;99.90;;;;;;5127528;28;20178;-85
2023/09/23 07:44:32;;;;;;;7.47;3.20;;;13.50;99.90;;;;;;5123924;28;20658;-83
2023/09/23 07:46:57;;;;;;;5.63;2.87;;;13.60;99.90;;;;;;5118186;28;20217;-85
2023/09/23 07:49:23;;;;;;;9.43;3.60;;;13.60;99.90;;;;;;5117053;28;20367;-84
2023/09/23 07:51:49;;;;;;;6.60;3.10;;;13.70;99.90;;;;;;5109222;28;20180;-84
2023/09/23 07:54:15;;;;;;;6.90;3.53;;;13.90;98.60;;;;;;5099148;28;20192;-84
2023/09/23 07:56:41;;;;;;;7.00;3.60;;;13.80;97.40;;;;;;5095265;28;20224;-85
2023/09/23 07:59:07;;;;;;;5.53;2.73;;;13.90;96.80;;;;;;5095798;28;20666;-83
2023/09/23 08:01:33;;;;;;;8.60;3.20;;;13.90;97.00;;;;;;5095473;28;20180;-84
2023/09/23 08:03:59;;;;;;;6.90;3.00;;;13.90;95.00;;;;;;5094811;28;20179;-83
2023/09/23 08:06:25;;;;;;;4.90;3.03;;;13.90;96.50;;;;;;5099784;28;20195;-84
2023/09/23 08:08:51;;;;;;;7.57;3.37;;;14.00;94.80;;;;;;5097468;28;20229;-84
2023/09/23 08:11:16;;;;;;;6.93;3.87;;;14.00;93.10;;;;;;5095412;28;20577;-85
2023/09/23 08:13:42;;;;;;;5.03;3.03;;;14.00;92.50;;;;;;5101403;28;20179;-84
2023/09/23 08:16:08;;;;;;;7.00;3.30;;;13.90;91.10;;;;;;5104361;28;20572;-84
2023/09/23 08:18:35;;;;;;;7.30;3.40;;;13.90;92.10;;;;;;5096494;28;20693;-83
2023/09/23 08:21:01;;;;;;;5.57;3.10;;;14.00;93.50;;;;;;5093603;28;20175;-83
2023/09/23 08:23:27;;;;;;;8.47;3.10;;;14.00;94.10;;;;;;5095044;28;20250;-82
2023/09/23 08:25:54;;;;;;;4.47;2.70;;;14.10;93.60;;;;;;5102506;28;20168;-82
2023/09/23 08:28:20;;;;;;;8.40;3.27;;;14.20;91.70;;;;;;5096453;28;20195;-84
2023/09/23 08:30:47;;;;;;;8.47;3.63;;;14.30;86.50;;;;;;5095986;28;20642;-86
2023/09/23 08:33:13;;;;;;;6.53;3.40;;;14.20;86.50;;;;;;5094909;28;20651;-85
2023/09/23 08:35:41;;;;;;;8.83;3.50;;;14.20;87.50;;;;;;5096542;28;20179;-85
2023/09/23 08:38:07;;;;;;;5.90;3.30;;;14.30;84.80;;;;;;5096175;28;20655;-83
2023/09/23 08:40:36;;;;;;;8.50;4.10;;;14.50;81.50;;;;;;5095587;28;20203;-84
2023/09/23 08:43:04;;;;;;;6.47;4.00;;;14.60;72.60;;;;;;5093982;28;20179;-83
2023/09/23 08:45:31;;;;;;;7.37;3.33;;;14.70;70.00;;;;;;5096215;28;20713;-83
2023/09/23 08:48:02;;;;;;;6.60;3.53;;;14.80;66.00;;;;;;5097798;28;20218;-85
2023/09/23 08:50:29;;;;;;;6.23;3.30;;;15.00;63.40;;;;;;5104022;28;20619;-82
2023/09/23 08:52:55;;;;;;;7.23;3.00;;;15.00;56.00;;;;;;5105725;28;20666;-82
2023/09/23 08:55:24;;;;;;;7.20;2.97;;;15.00;54.30;;;;;;5102051;28;20540;-86
2023/09/23 08:57:50;;;;;;;8.17;3.17;;;15.10;51.20;;;;;;5096720;28;20224;-82
2023/09/23 09:00:18;;;;;;;5.43;2.80;;;15.10;50.40;;;;;;5098932;28;20169;-81
2023/09/23 09:02:44;;;;;;;11.57;3.23;;;15.30;43.60;;;;;;5094047;28;20175;-83
2023/09/23 09:05:10;;;;;;;6.10;3.07;;;15.40;41.70;;;;;;5093725;28;20196;-83
2023/09/23 09:07:37;;;;;;;6.00;3.00;;;15.60;35.20;;;;;;5093786;28;20218;-85
2023/09/23 09:10:06;;;;;;;5.57;2.80;;;15.60;21.20;;;;;;5095464;28;20197;-84
2023/09/23 09:12:32;;;;;;;8.20;2.87;;;15.60;17.30;;;;;;5111813;28;20175;-82
2023/09/23 09:14:58;;;;;;;5.03;2.70;;;15.50;25.30;;;;;;5117140;28;20214;-83
2023/09/23 09:17:25;;;;;;;6.03;2.60;;;15.50;26.10;;;;;;5114796;28;20175;-84
2023/09/23 09:19:51;;;;;;;7.00;2.40;;;15.40;22.80;;;;;;5110561;28;20180;-85
2023/09/23 09:22:19;;;;;;;8.70;2.87;;;15.30;19.60;;;;;;5100049;28;20173;-83
2023/09/23 09:24:46;;;;;;;5.43;2.77;;;15.40;18.10;;;;;;5112652;28;20174;-84
2023/09/23 09:27:15;;;;;;;7.97;2.50;;;15.40;19.40;;;;;;5099711;28;20648;-83
2023/09/23 09:29:42;;;;;;;8.67;3.20;;;15.60;18.90;;;;;;5094027;28;20172;-84
2023/09/23 09:32:13;;;;;;;6.50;2.20;;;15.70;18.50;;;;;;5094031;28;20167;-84
2023/09/23 09:34:47;;;;;;;6.83;2.40;;;15.90;4.00;;;;;;5109898;28;20189;-85
2023/09/23 09:37:15;;;;;;;6.73;2.30;;;15.80;1.00;;;;;;5116293;28;20685;-84
2023/09/23 09:39:55;;;;;;;4.90;1.73;;;15.90;1.30;;;;;;5097837;28;20185;-83
2023/09/23 09:42:26;;;;;;;5.33;2.10;;;16.00;1.00;;;;;;5091248;28;20380;-83
2023/09/23 09:44:55;;;;;;;6.33;2.07;;;16.00;1.00;;;;;;5091887;28;20268;-85
2023/09/23 09:47:22;;;;;;;5.07;2.00;;;16.10;1.00;;;;;;5094582;28;20298;-84
2023/09/23 09:49:52;;;;;;;4.87;1.83;;;16.10;1.00;;;;;;5111728;28;20227;-82
2023/09/23 09:52:22;;;;;;;6.63;2.40;;;16.10;1.00;;;;;;5114858;28;20181;-83
2023/09/23 09:54:56;;;;;;;5.20;1.70;;;16.00;1.00;;;;;;5112911;28;20542;-84
2023/09/23 09:57:23;;;;;;;6.23;1.83;;;15.90;1.00;;;;;;5111316;28;20159;-84
2023/09/23 09:59:52;;;;;;;5.57;1.80;;;15.90;1.00;;;;;;5091795;28;20176;-84
2023/09/23 10:02:18;;;;;;;6.20;1.70;;;16.10;1.00;;;;;;5091694;28;20173;-84
2023/09/23 10:04:53;;;;;;;4.27;2.10;;;16.30;1.00;;;;;;5091955;28;20269;-83
2023/09/23 10:07:22;;;;;;;4.53;1.83;;;16.40;1.00;;;;;;5091946;28;20205;-83
2023/09/23 10:09:53;;;;;;;5.70;1.83;;;16.50;1.00;;;;;;5091737;28;20173;-85
2023/09/23 10:12:25;;;;;;;4.77;1.50;;;16.50;1.00;;;;;;5091943;28;20171;-83
2023/09/23 10:14:55;;;;;;;5.13;1.63;;;16.60;1.00;;;;;;5092241;28;20712;-83
2023/09/23 10:17:31;;;;;;;5.40;2.03;;;16.50;1.00;;;;;;5100895;28;20182;-83
2023/09/23 10:19:57;;;;;;;7.33;1.80;;;16.50;1.00;;;;;;5102555;28;20575;-83
2023/09/23 10:22:23;;;;;;;7.43;1.90;;;16.30;1.00;;;;;;5102831;28;20172;-83
2023/09/23 10:25:00;;;;;;;4.90;1.60;;;16.50;1.00;;;;;;5098034;28;20270;-84
2023/09/23 10:27:26;;;;;;;5.37;1.77;;;16.50;1.00;;;;;;5102208;28;20192;-84
2023/09/23 10:29:52;;;;;;;5.20;1.60;;;16.60;1.00;;;;;;5101396;28;20260;-82
2023/09/23 10:32:18;;;;;;;5.80;1.80;;;16.60;1.00;;;;;;5109917;28;20188;-81
2023/09/23 10:34:48;;;;;;;6.47;1.77;;;16.50;1.00;;;;;;5096156;28;20220;-84
2023/09/23 10:37:28;;;;;;;4.37;1.30;;;16.60;1.00;;;;;;5096560;28;20168;-83
2023/09/23 10:39:53;;;;;;;5.33;1.40;;;16.70;1.00;;;;;;5096546;28;20167;-83
2023/09/23 10:42:19;;;;;;;3.77;1.47;;;16.60;1.00;;;;;;5096790;28;20257;-83
2023/09/23 10:44:48;;;;;;;6.67;1.67;;;16.50;1.00;;;;;;5095599;28;20180;-84
2023/09/23 10:47:14;;;;;;;6.10;1.40;;;16.50;1.00;;;;;;5096982;28;20206;-83
2023/09/23 10:49:40;;;;;;;5.90;1.50;;;16.70;1.00;;;;;;5096679;28;20702;-85
2023/09/23 10:52:06;;;;;;;3.17;1.30;;;16.70;1.00;;;;;;5096884;28;20213;-84
2023/09/23 10:54:33;;;;;;;5.40;1.70;;;16.60;1.00;;;;;;5099772;28;20210;-84
2023/09/23 10:57:00;;;;;;;4.57;1.67;;;16.60;1.00;;;;;;5116095;28;20197;-84
2023/09/23 10:59:26;;;;;;;5.77;2.00;;;16.60;1.00;;;;;;5115774;28;20202;-85
2023/09/23 11:01:55;;;;;;;5.93;1.87;;;16.70;1.00;;;;;;5115807;28;20163;-84
2023/09/23 11:04:23;;;;;;;7.23;1.70;;;16.80;1.00;;;;;;5115270;28;20178;-84
2023/09/23 11:06:49;;;;;;;5.33;1.67;;;16.90;1.00;;;;;;5119328;28;20206;-83
2023/09/23 11:09:14;;;;;;;4.10;1.50;;;17.10;1.00;;;;;;5113373;28;20171;-85
2023/09/23 11:11:41;;;;;;;7.23;1.83;;;17.30;1.00;;;;;;5106613;28;20534;-84
2023/09/23 11:14:13;;;;;;;5.40;2.00;;;17.40;1.00;;;;;;5105657;28;20176;-83
2023/09/23 11:16:44;;;;;;;4.93;1.70;;;17.40;1.00;;;;;;5104668;28;20171;-83
2023/09/23 11:19:09;;;;;;;5.93;1.53;;;17.40;1.00;;;;;;5098971;28;20176;-85
2023/09/23 11:21:46;;;;;;;4.17;1.50;;;17.30;1.00;;;;;;5105554;28;20164;-83
2023/09/23 11:24:15;;;;;;;5.30;1.70;;;17.20;1.00;;;;;;5106314;28;20203;-82
2023/09/23 11:26:41;;;;;;;4.17;1.77;;;17.30;1.00;;;;;;5104372;28;20666;-84
2023/09/23 11:29:07;;;;;;;5.33;1.50;;;17.30;1.00;;;;;;5107305;28;20540;-85
2023/09/23 11:31:34;;;;;;;5.30;1.60;;;17.30;1.00;;;;;;5114246;28;20169;-84
2023/09/23 11:33:59;;;;;;;6.10;1.90;;;17.40;1.00;;;;;;5107145;28;20196;-85
2023/09/23 11:36:25;;;;;;;4.17;1.30;;;17.40;1.00;;;;;;5096677;28;20168;-86
2023/09/23 11:38:52;;;;;;;4.83;1.70;;;17.40;1.00;;;;;;5095219;28;20176;-86
2023/09/23 11:41:18;;;;;;;4.60;1.67;;;17.40;1.00;;;;;;5094663;28;20556;-84
2023/09/23 11:43:44;;;;;;;6.00;1.70;;;17.50;1.00;;;;;;5094600;28;20290;-84
2023/09/23 11:46:14;;;;;;;5.30;1.83;;;17.50;1.00;;;;;;5110677;28;20190;-84
2023/09/23 11:48:41;;;;;;;4.30;1.50;;;17.60;1.00;;;;;;5100300;28;20187;-82
2023/09/23 11:51:07;;;;;;;6.30;1.60;;;17.80;1.00;;;;;;5103014;28;20177;-83
2023/09/23 11:53:35;;;;;;;4.07;1.57;;;18.00;1.00;;;;;;5115481;28;20194;-81
2023/09/23 11:56:01;;;;;;;5.20;1.53;;;18.10;1.00;;;;;;5115173;28;20164;-85
2023/09/23 11:58:28;;;;;;;4.23;1.60;;;17.90;1.00;;;;;;5113837;28;20179;-86
2023/09/23 12:00:54;;;;;;;6.07;1.50;;;17.80;1.00;;;;;;5112949;28;20163;-84
2023/09/23 12:03:20;;;;;;;6.77;1.70;;;17.80;1.00;;;;;;5113789;28;20193;-82
2023/09/23 12:05:46;;;;;;;5.43;1.70;;;17.90;1.00;;;;;;5113454;28;20590;-83
2023/09/23 12:08:11;;;;;;;4.87;1.87;;;18.00;1.00;;;;;;5114720;28;20267;-82
2023/09/23 12:10:37;;;;;;;5.67;1.90;;;18.10;1.00;;;;;;5112837;28;20209;-82
2023/09/23 12:13:05;;;;;;;7.10;1.80;;;18.00;1.00;;;;;;5114256;28;20717;-85
2023/09/23 12:15:34;;;;;;;5.77;1.67;;;17.80;1.00;;;;;;5108493;28;20172;-82
2023/09/23 12:18:00;;;;;;;4.57;1.47;;;17.80;1.00;;;;;;5096591;28;20256;-82
2023/09/23 12:20:26;;;;;;;3.57;1.40;;;18.00;1.00;;;;;;5102262;28;20168;-80
2023/09/23 12:22:57;;;;;;;4.23;1.30;;;18.10;1.00;;;;;;5100446;28;20189;-83
2023/09/23 12:25:24;;;;;;;4.73;1.77;;;17.90;1.00;;;;;;5101436;28;20629;-80
2023/09/23 12:27:49;;;;;;;4.73;1.60;;;17.90;1.00;;;;;;5101574;28;20205;-81
2023/09/23 12:30:18;;;;;;;3.97;1.77;;;18.00;1.00;;;;;;5105025;28;20173;-82
2023/09/23 12:32:44;;;;;;;4.23;1.80;;;17.80;1.00;;;;;;5102833;28;20182;-82
2023/09/23 12:35:11;;;;;;;3.77;1.20;;;17.90;1.00;;;;;;5109940;28;20506;-82
2023/09/23 12:37:37;;;;;;;4.60;1.50;;;18.00;1.00;;;;;;5101112;28;20194;-81
2023/09/23 12:40:07;;;;;;;5.73;1.50;;;18.10;1.00;;;;;;5104837;28;20186;-83
2023/09/23 12:42:33;;;;;;;2.00;1.10;;;18.20;1.00;;;;;;5107110;28;20221;-83
2023/09/23 12:44:59;;;;;;;3.93;1.40;;;18.20;1.00;;;;;;5092869;28;20158;-82
2023/09/23 12:47:25;;;;;;;6.33;1.40;;;18.40;1.00;;;;;;5092487;28;20241;-81
2023/09/23 12:49:50;;;;;;;3.17;1.10;;;18.40;1.00;;;;;;5094077;28;20224;-83
2023/09/23 12:52:16;;;;;;;2.87;1.03;;;18.40;1.00;;;;;;5107437;28;20170;-83